Time;durP1;ratioP1;P1;durP2;ratioP2;P2;SDS_P1;SDS_P2;PMS_P1;PMS_P2;Temp;Humidity;BMP_temperature;BMP_pressure;BME280_temperature;BME280_humidity;BME280_pressure;Samples;Min_cycle;Max_cycle;Signal;HPM_P1;HPM_P2
2021/12/14 00:01:34;;;;;;;23.13;6.60;;;10.00;99.90;;;;;;4935284;29;20477;-84
2021/12/14 00:04:25;;;;;;;15.20;4.75;;;9.70;99.90;;;;;;4934296;29;20054;-78
2021/12/14 00:07:08;;;;;;;11.45;5.03;;;9.70;99.90;;;;;;4959196;29;20054;-80
2021/12/14 00:09:42;;;;;;;10.70;4.10;;;9.70;99.90;;;;;;4932047;29;20044;-84
2021/12/14 00:12:43;;;;;;;7.60;4.03;;;9.70;99.90;;;;;;4964688;29;20051;-80
2021/12/14 00:15:16;;;;;;;9.43;4.63;;;9.70;99.90;;;;;;4965627;29;20055;-78
2021/12/14 00:17:48;;;;;;;12.02;5.07;;;9.60;99.90;;;;;;4930761;29;20051;-79
2021/12/14 00:20:41;;;;;;;;;;;9.60;99.90;;;;;;4947011;29;20052;-81
2021/12/14 00:25:51;;;;;;;;;;;9.60;99.90;;;;;;4965963;29;19926;-81
2021/12/14 00:28:27;;;;;;;;;;;9.60;99.90;;;;;;4900611;29;19927;-82
2021/12/14 00:31:00;;;;;;;;;;;9.50;99.90;;;;;;4929086;29;19923;-80
2021/12/14 00:33:31;;;;;;;;;;;8.20;99.90;;;;;;4946978;29;19933;-79
2021/12/14 00:36:03;;;;;;;;;;;9.40;99.90;;;;;;4924752;29;20499;-80
2021/12/14 00:38:34;;;;;;;;;;;9.40;99.90;;;;;;4943088;29;19930;-82
2021/12/14 00:41:11;;;;;;;;;;;9.40;99.90;;;;;;4927206;29;19923;-80
2021/12/14 00:43:42;;;;;;;;;;;9.30;99.90;;;;;;4955449;29;19926;-81
2021/12/14 00:46:14;;;;;;;;;;;9.70;99.90;;;;;;4921730;29;19923;-81
2021/12/14 00:48:43;;;;;;;;;;;9.30;99.90;;;;;;4932610;29;19929;-81
2021/12/14 00:51:12;;;;;;;;;;;9.60;99.90;;;;;;4933826;29;20305;-84
2021/12/14 00:53:41;;;;;;;;;;;8.90;99.90;;;;;;4948944;29;19929;-83
2021/12/14 00:56:12;;;;;;;;;;;9.30;99.90;;;;;;4933655;29;19929;-84
2021/12/14 00:58:43;;;;;;;;;;;9.30;99.90;;;;;;4935531;29;19933;-82
2021/12/14 01:01:17;;;;;;;;;;;9.20;99.90;;;;;;4935920;29;19923;-80
2021/12/14 01:03:47;;;;;;;;;;;8.70;99.90;;;;;;4919673;29;19933;-82
2021/12/14 01:06:18;;;;;;;;;;;9.20;99.90;;;;;;4942617;29;19933;-83
2021/12/14 01:08:49;;;;;;;;;;;9.30;99.90;;;;;;4914682;29;19938;-81
2021/12/14 01:11:21;;;;;;;;;;;9.20;99.90;;;;;;4949312;29;19929;-80
2021/12/14 01:13:59;;;;;;;;;;;9.20;99.90;;;;;;4933202;29;20167;-79
2021/12/14 01:16:48;;;;;;;;;;;10.70;99.90;;;;;;4908853;29;19939;-82
2021/12/14 01:19:25;;;;;;;;;;;7.60;99.90;;;;;;4933128;29;19929;-81
2021/12/14 01:27:39;;;;;;;;;;;9.20;99.90;;;;;;4959023;28;20669;-81
2021/12/14 01:30:13;;;;;;;;;;;9.20;99.90;;;;;;4952302;29;19928;-83
2021/12/14 01:32:48;;;;;;;;;;;9.30;99.90;;;;;;4955622;29;19910;-85
2021/12/14 01:35:35;;;;;;;;;;;8.90;99.90;;;;;;4969569;28;19923;-81
2021/12/14 01:38:17;;;;;;;;;;;8.30;99.90;;;;;;4970150;29;19928;-82
2021/12/14 01:40:55;;;;;;;;;;;9.20;99.90;;;;;;4935448;29;19933;-82
2021/12/14 01:43:48;;;;;;;;;;;9.10;99.90;;;;;;4934690;29;19923;-82
2021/12/14 01:46:25;;;;;;;;;;;9.20;99.90;;;;;;4967525;29;20010;-82
2021/12/14 01:49:10;;;;;;;;;;;8.40;99.90;;;;;;4933910;29;19923;-80
2021/12/14 01:51:49;;;;;;;;;;;8.30;99.90;;;;;;4952015;28;19926;-84
2021/12/14 01:54:30;;;;;;;;;;;9.20;99.90;;;;;;4938926;29;19929;-82
2021/12/14 01:57:05;;;;;;;;;;;9.10;99.90;;;;;;4970896;28;19937;-83
2021/12/14 01:59:38;;;;;;;;;;;9.30;99.90;;;;;;4964788;29;19926;-82
2021/12/14 02:02:29;;;;;;;;;;;9.20;99.90;;;;;;4969210;29;20300;-81
2021/12/14 02:04:59;;;;;;;;;;;9.00;99.90;;;;;;4952528;29;19928;-81
2021/12/14 02:07:36;;;;;;;;;;;9.00;99.90;;;;;;4953617;28;20074;-78
2021/12/14 02:10:07;;;;;;;;;;;8.90;99.90;;;;;;4951772;29;19927;-79
2021/12/14 02:12:39;;;;;;;;;;;9.10;99.90;;;;;;4950372;29;19933;-83
2021/12/14 02:15:11;;;;;;;;;;;8.90;99.90;;;;;;4949852;29;20089;-79
2021/12/14 02:17:43;;;;;;;;;;;8.90;99.90;;;;;;4947830;29;19930;-81
2021/12/14 02:20:19;;;;;;;;;;;9.00;99.90;;;;;;4947735;29;20281;-82
2021/12/14 02:22:47;;;;;;;;;;;9.00;99.90;;;;;;4948603;29;19930;-84
2021/12/14 02:25:16;;;;;;;;;;;9.00;99.90;;;;;;4948471;29;19927;-82
2021/12/14 02:27:46;;;;;;;;;;;9.10;99.90;;;;;;4968714;28;19926;-81
2021/12/14 02:30:16;;;;;;;;;;;8.60;99.90;;;;;;4937827;29;19922;-80
2021/12/14 02:32:45;;;;;;;;;;;7.60;99.90;;;;;;4932315;29;20067;-81
2021/12/14 02:35:16;;;;;;;;;;;9.30;99.90;;;;;;4947679;29;19934;-79
2021/12/14 02:37:52;;;;;;;;;;;9.20;99.90;;;;;;4943693;29;19927;-83
2021/12/14 02:40:53;;;;;;;;;;;9.10;99.90;;;;;;4934777;29;20347;-81
2021/12/14 02:43:22;;;;;;;;;;;9.50;99.90;;;;;;4931979;29;19922;-79
2021/12/14 02:45:52;;;;;;;;;;;9.30;99.90;;;;;;4937070;29;20512;-81
2021/12/14 02:48:22;;;;;;;;;;;9.30;99.90;;;;;;4937403;29;19930;-82
2021/12/14 02:50:53;;;;;;;;;;;9.20;99.90;;;;;;4954256;29;19933;-84
2021/12/14 02:53:21;;;;;;;;;;;9.00;99.90;;;;;;4922467;29;19932;-81
2021/12/14 02:55:51;;;;;;;;;;;9.30;99.90;;;;;;4939278;29;19931;-82
2021/12/14 02:58:19;;;;;;;;;;;9.30;99.90;;;;;;4952801;29;19927;-83
2021/12/14 03:00:50;;;;;;;;;;;9.30;99.90;;;;;;4903503;29;19929;-83
2021/12/14 03:03:19;;;;;;;;;;;9.30;99.90;;;;;;4929978;29;19929;-82
2021/12/14 03:05:49;;;;;;;;;;;9.40;99.90;;;;;;4955762;29;19923;-80
2021/12/14 03:08:20;;;;;;;;;;;9.40;99.90;;;;;;4933181;29;19923;-82
2021/12/14 03:10:59;;;;;;;;;;;9.50;99.90;;;;;;4932916;29;19922;-82
2021/12/14 03:13:33;;;;;;;;;;;9.50;99.90;;;;;;4949092;29;19922;-80
2021/12/14 03:16:04;;;;;;;;;;;9.50;99.90;;;;;;4940234;29;19929;-80
2021/12/14 03:18:40;;;;;;;;;;;9.40;99.90;;;;;;4949496;29;19926;-80
2021/12/14 03:21:11;;;;;;;;;;;9.60;99.90;;;;;;4916152;29;19923;-81
2021/12/14 03:23:50;;;;;;;;;;;9.60;99.90;;;;;;4947890;29;19930;-79
2021/12/14 03:26:19;;;;;;;;;;;9.80;99.90;;;;;;4947014;29;19923;-80
2021/12/14 03:28:51;;;;;;;;;;;9.70;99.90;;;;;;4951367;29;19930;-80
2021/12/14 03:31:20;;;;;;;;;;;9.60;99.90;;;;;;4937027;29;19930;-79
2021/12/14 03:33:52;;;;;;;;;;;9.40;99.90;;;;;;4952388;29;19922;-79
2021/12/14 03:36:26;;;;;;;;;;;9.70;99.90;;;;;;4931579;29;19931;-82
2021/12/14 03:38:58;;;;;;;;;;;9.10;99.90;;;;;;4931671;29;20032;-79
2021/12/14 03:41:29;;;;;;;;;;;9.80;99.90;;;;;;4932011;29;19943;-81
2021/12/14 03:44:03;;;;;;;;;;;9.60;99.90;;;;;;4947939;29;19938;-81
2021/12/14 03:46:42;;;;;;;;;;;9.90;99.90;;;;;;4947814;28;19923;-79
2021/12/14 03:49:10;;;;;;;;;;;10.10;99.90;;;;;;4956824;29;19931;-81
2021/12/14 03:51:42;;;;;;;;;;;10.00;99.90;;;;;;4950174;29;19923;-78
2021/12/14 03:54:17;;;;;;;;;;;11.50;99.90;;;;;;4968397;29;19933;-79
2021/12/14 03:56:49;;;;;;;;;;;10.00;99.90;;;;;;4952993;29;19923;-79
2021/12/14 03:59:22;;;;;;;;;;;10.10;99.90;;;;;;4937550;29;19937;-81
2021/12/14 04:01:59;;;;;;;;;;;10.10;99.90;;;;;;4939573;29;19923;-81
2021/12/14 04:04:41;;;;;;;;;;;10.10;99.90;;;;;;4956338;29;19937;-80
2021/12/14 04:07:13;;;;;;;;;;;10.20;99.90;;;;;;4955693;29;19926;-81
2021/12/14 04:09:48;;;;;;;;;;;10.20;99.90;;;;;;4955465;29;19922;-80
2021/12/14 04:12:22;;;;;;;;;;;10.50;99.90;;;;;;4952842;29;20357;-81
2021/12/14 04:14:59;;;;;;;;;;;10.40;99.90;;;;;;4954094;29;19923;-84
2021/12/14 04:17:31;;;;;;;;;;;10.20;99.90;;;;;;4936432;29;19941;-82
2021/12/14 04:20:08;;;;;;;;;;;10.30;99.90;;;;;;4966671;29;19922;-81
2021/12/14 04:22:36;;;;;;;;;;;10.10;99.90;;;;;;4966774;29;19942;-83
2021/12/14 04:25:11;;;;;;;;;;;10.20;99.90;;;;;;4953422;29;19922;-81
2021/12/14 04:27:43;;;;;;;;;;;10.20;99.90;;;;;;4955694;29;19910;-81
2021/12/14 04:30:22;;;;;;;;;;;10.40;99.90;;;;;;4955031;29;20324;-82
2021/12/14 04:33:08;;;;;;;;;;;9.60;99.90;;;;;;4955762;29;19926;-81
2021/12/14 04:35:40;;;;;;;;;;;8.70;99.90;;;;;;4939695;29;19929;-81
2021/12/14 04:38:20;;;;;;;;;;;10.80;99.90;;;;;;4938818;29;19928;-81
2021/12/14 04:52:14;;;;;;;;;;;11.60;99.90;;;;;;4954570;29;19930;-82
2021/12/14 04:54:51;;;;;;;;;;;10.70;99.90;;;;;;4954258;28;19930;-81
2021/12/14 04:57:24;;;;;;;;;;;10.50;99.90;;;;;;4960562;29;19923;-85
2021/12/14 05:00:03;;;;;;;;;;;10.70;99.90;;;;;;4950430;29;19933;-81
2021/12/14 05:02:48;;;;;;;;;;;10.50;99.90;;;;;;4937387;29;20352;-81
2021/12/14 05:05:32;;;;;;;;;;;10.60;99.90;;;;;;4951062;28;19926;-83
2021/12/14 05:11:01;;;;;;;;;;;10.50;99.90;;;;;;4938574;29;19923;-81
2021/12/14 05:13:38;;;;;;;;;;;10.40;99.90;;;;;;4972369;29;19929;-80
2021/12/14 05:16:25;;;;;;;;;;;10.40;99.90;;;;;;4954931;28;19930;-83
2021/12/14 05:18:59;;;;;;;;;;;9.10;99.90;;;;;;4956766;29;19926;-79
2021/12/14 05:21:33;;;;;;;;;;;10.30;99.90;;;;;;4957126;29;19933;-82
2021/12/14 05:24:04;;;;;;;;;;;10.40;99.90;;;;;;4956815;29;19929;-81
2021/12/14 05:26:43;;;;;;;;;;;10.30;99.90;;;;;;4951499;29;19922;-84
2021/12/14 05:29:23;;;;;;;;;;;10.40;99.90;;;;;;4920579;29;19933;-83
2021/12/14 05:32:00;;;;;;;;;;;10.30;99.90;;;;;;4920851;29;19923;-81
2021/12/14 05:34:42;;;;;;;;;;;10.30;99.90;;;;;;4935253;29;19946;-84
2021/12/14 05:37:16;;;;;;;;;;;10.30;99.90;;;;;;4919395;29;19937;-83
2021/12/14 05:39:55;;;;;;;;;;;10.40;99.90;;;;;;4933468;29;19929;-82
2021/12/14 05:45:44;;;;;;;;;;;10.40;99.90;;;;;;4946171;29;19923;-81
2021/12/14 05:48:21;;;;;;;;;;;10.40;99.90;;;;;;4915490;29;19931;-82
2021/12/14 05:50:55;;;;;;;;;;;10.20;99.90;;;;;;4954075;29;19926;-82
2021/12/14 05:53:27;;;;;;;;;;;10.40;99.90;;;;;;4919465;29;19926;-80
2021/12/14 05:55:59;;;;;;;;;;;10.30;99.90;;;;;;4933939;29;19929;-81
2021/12/14 05:58:33;;;;;;;;;;;10.30;99.90;;;;;;4946300;29;19930;-80
2021/12/14 06:01:09;;;;;;;;;;;10.30;99.90;;;;;;4949938;29;19922;-80
2021/12/14 06:03:46;;;;;;;;;;;10.20;99.90;;;;;;4932815;29;19927;-82
2021/12/14 06:06:20;;;;;;;;;;;9.80;99.90;;;;;;4949549;29;19926;-86
2021/12/14 06:09:01;;;;;;;;;;;11.70;99.90;;;;;;4902045;29;19933;-88
2021/12/14 06:11:39;;;;;;;;;;;10.30;99.90;;;;;;4933329;29;19929;-83
2021/12/14 06:14:16;;;;;;;;;;;10.00;99.90;;;;;;4919029;29;19923;-85
2021/12/14 06:16:46;;;;;;;;;;;10.00;99.90;;;;;;4917616;29;19923;-84
2021/12/14 06:19:16;;;;;;;;;;;8.50;99.90;;;;;;4933549;29;19933;-84
2021/12/14 06:21:49;;;;;;;;;;;10.20;99.90;;;;;;4933522;29;19923;-86
2021/12/14 06:24:21;;;;;;;;;;;10.10;99.90;;;;;;4917240;29;20556;-84
2021/12/14 06:26:51;;;;;;;;;;;9.50;99.90;;;;;;4941781;29;19922;-84
2021/12/14 06:29:23;;;;;;;;;;;8.60;99.90;;;;;;4969325;29;19926;-84
2021/12/14 06:31:55;;;;;;;;;;;10.10;99.90;;;;;;4953539;29;19940;-87
2021/12/14 06:34:28;;;;;;;;;;;9.60;99.90;;;;;;4938638;29;19922;-84
2021/12/14 06:37:04;;;;;;;;;;;9.90;99.90;;;;;;4952570;29;20380;-85
2021/12/14 06:39:56;;;;;;;;;;;9.90;99.90;;;;;;4952532;29;19922;-86
2021/12/14 06:42:26;;;;;;;;;;;9.90;99.90;;;;;;4945404;28;19922;-84
2021/12/14 06:45:11;;;;;;;;;;;9.90;99.90;;;;;;4960206;29;19933;-83
2021/12/14 06:47:41;;;;;;;;;;;10.00;99.90;;;;;;4968502;29;19926;-85
2021/12/14 06:50:13;;;;;;;;;;;8.10;99.90;;;;;;4968932;28;19929;-82
2021/12/14 06:52:43;;;;;;;;;;;9.40;99.90;;;;;;4970059;29;19929;-84
2021/12/14 06:55:34;;;;;;;;;;;9.80;99.90;;;;;;4966577;28;19937;-83
2021/12/14 06:58:36;;;;;;;;;;;9.80;99.90;;;;;;4905421;29;19934;-83
2021/12/14 07:01:28;;;;;;;;;;;9.70;99.90;;;;;;4956911;29;19927;-85
2021/12/14 07:04:05;;;;;;;;;;;9.40;99.90;;;;;;4949679;29;19923;-86
2021/12/14 07:06:45;;;;;;;;;;;9.20;99.90;;;;;;4953444;28;19926;-83
2021/12/14 07:09:18;;;;;;;;;;;8.80;99.90;;;;;;4935982;29;20376;-82
2021/12/14 07:11:59;;;;;;;;;;;10.10;99.90;;;;;;4950716;29;19930;-83
2021/12/14 07:14:37;;;;;;;;;;;9.80;99.90;;;;;;4964506;28;19936;-84
2021/12/14 07:17:10;;;;;;;;;;;9.80;99.90;;;;;;4950498;29;19922;-81
2021/12/14 07:19:42;;;;;;;;;;;9.80;99.90;;;;;;4962418;29;20331;-83
2021/12/14 07:22:23;;;;;;;;;;;9.80;99.90;;;;;;4965622;28;19945;-84
2021/12/14 07:24:59;;;;;;;;;;;9.80;99.90;;;;;;4956451;28;19929;-84
2021/12/14 07:27:29;;;;;;;;;;;9.70;99.90;;;;;;4933409;29;19922;-83
2021/12/14 07:30:15;;;;;;;;;;;11.60;99.90;;;;;;4934657;29;19922;-82
2021/12/14 07:32:52;;;;;;;;;;;9.70;99.90;;;;;;4967180;28;19927;-84
2021/12/14 07:35:31;;;;;;;;;;;9.80;99.90;;;;;;4963873;29;19930;-84
2021/12/14 07:38:17;;;;;;;;;;;9.70;99.90;;;;;;4949136;28;19933;-82
2021/12/14 07:40:49;;;;;;;;;;;9.70;99.90;;;;;;4964926;28;19923;-83
2021/12/14 07:43:35;;;;;;;;;;;9.90;99.90;;;;;;4966569;28;19923;-84
2021/12/14 07:46:21;;;;;;;;;;;9.70;99.90;;;;;;4934614;28;19930;-85
2021/12/14 07:48:53;;;;;;;;;;;11.70;99.90;;;;;;4947536;28;19930;-84
2021/12/14 07:51:25;;;;;;;;;;;9.80;99.90;;;;;;4940937;29;19923;-83
2021/12/14 07:54:06;;;;;;;;;;;9.80;99.90;;;;;;4972501;28;19926;-82
2021/12/14 07:56:54;;;;;;;;;;;10.00;99.90;;;;;;4969355;29;19926;-83
2021/12/14 07:59:30;;;;;;;;;;;10.10;99.90;;;;;;4968694;29;19933;-82
2021/12/14 08:02:18;;;;;;;;;;;9.20;99.90;;;;;;4969863;29;19926;-83
2021/12/14 08:04:56;;;;;;;;;;;10.00;99.90;;;;;;4966651;29;19986;-83
2021/12/14 08:07:31;;;;;;;;;;;10.00;99.90;;;;;;4967852;29;19934;-83
2021/12/14 08:10:41;;;;;;;;;;;10.00;99.90;;;;;;4926631;29;20396;-81
2021/12/14 08:13:38;;;;;;;;;;;9.90;99.90;;;;;;4954071;29;19928;-83
2021/12/14 08:17:24;;;;;;;;;;;10.30;99.90;;;;;;4925436;29;19929;-82
2021/12/14 08:28:05;;;;;;;;;;;;;;;;;;;;;
2021/12/14 08:31:40;;;;;;;;;;;10.10;99.90;;;;;;4929053;29;19927;-84
2021/12/14 08:38:35;;;;;;;;;;;10.30;99.90;;;;;;4818978;29;19939;-86
2021/12/14 08:41:22;;;;;;;;;;;9.70;99.90;;;;;;4894788;29;19946;-85
2021/12/14 08:44:09;;;;;;;;;;;10.40;99.90;;;;;;4908190;29;19976;-83
2021/12/14 08:46:52;;;;;;;;;;;;;;;;;;;;;
2021/12/14 08:49:47;;;;;;;;;;;10.70;99.90;;;;;;4878771;29;19938;-86
2021/12/14 08:52:31;;;;;;;;;;;9.30;99.90;;;;;;4909623;29;20393;-82
2021/12/14 08:55:31;;;;;;;;;;;10.70;99.90;;;;;;4910637;29;19938;-83
2021/12/14 08:58:12;;;;;;;;;;;11.10;99.90;;;;;;4897737;29;19927;-85
2021/12/14 09:01:05;;;;;;;;;;;10.80;99.90;;;;;;4881102;29;19923;-87
2021/12/14 09:03:51;;;;;;;;;;;9.30;99.90;;;;;;4910413;29;19967;-83
2021/12/14 09:06:20;;;;;;;;;;;10.80;99.90;;;;;;4908001;29;19923;-84
2021/12/14 09:09:08;;;;;;;;;;;10.80;99.90;;;;;;4925801;29;19926;-85
2021/12/14 09:12:00;;;;;;;;;;;10.80;99.90;;;;;;4935451;29;19922;-85
2021/12/14 09:14:33;;;;;;;;;;;11.10;99.90;;;;;;4935204;29;19922;-86
2021/12/14 09:17:06;;;;;;;;;;;11.10;99.90;;;;;;4969932;29;19926;-84
2021/12/14 09:19:44;;;;;;;;;;;11.20;99.90;;;;;;4938794;29;19922;-87
2021/12/14 09:22:21;;;;;;;;;;;10.70;99.90;;;;;;4963035;28;20388;-84
2021/12/14 09:25:19;;;;;;;;;;;11.10;99.90;;;;;;4967330;29;20269;-85
2021/12/14 09:27:54;;;;;;;;;;;11.30;99.90;;;;;;4951718;29;19930;-88
2021/12/14 09:30:30;;;;;;;;;;;11.30;99.90;;;;;;4969437;29;19922;-83
2021/12/14 09:33:17;;;;;;;;;;;11.30;99.90;;;;;;4970076;28;19922;-82
2021/12/14 09:36:20;;;;;;;;;;;11.30;99.90;;;;;;4967841;29;19926;-84
2021/12/14 09:39:07;;;;;;;;;;;11.50;99.90;;;;;;4970531;29;19929;-85
2021/12/14 09:41:40;;;;;;;;;;;11.60;99.90;;;;;;4968777;28;19929;-83
2021/12/14 09:44:33;;;;;;;;;;;11.40;99.90;;;;;;4970450;29;19930;-87
2021/12/14 09:47:26;;;;;;;;;;;11.40;99.90;;;;;;4954668;29;19932;-86
2021/12/14 09:49:54;;;;;;;;;;;11.70;99.90;;;;;;4955665;29;19930;-84
2021/12/14 09:52:47;;;;;;;;;;;11.60;99.90;;;;;;4972959;28;19923;-85
2021/12/14 09:55:17;;;;;;;;;;;11.50;99.90;;;;;;4967580;29;19930;-88
2021/12/14 09:57:55;;;;;;;;;;;11.70;99.90;;;;;;4958985;29;19922;-87
2021/12/14 10:00:28;;;;;;;;;;;11.70;99.90;;;;;;4949480;29;20282;-89
2021/12/14 10:03:03;;;;;;;;;;;12.40;99.90;;;;;;4938900;29;20378;-84
2021/12/14 10:05:41;;;;;;;;;;;11.70;99.90;;;;;;4956108;29;19926;-82
2021/12/14 10:08:25;;;;;;;;;;;11.80;99.90;;;;;;4955824;29;19922;-82
2021/12/14 10:11:23;;;;;;;;;;;11.80;99.90;;;;;;4939862;29;19943;-87
2021/12/14 10:13:59;;;;;;;;;;;12.10;99.90;;;;;;4954678;29;19926;-82
2021/12/14 10:16:34;;;;;;;;;;;12.90;99.90;;;;;;4938583;29;19926;-83
2021/12/14 10:19:05;;;;;;;;;;;11.90;99.90;;;;;;4953252;29;19922;-83
2021/12/14 10:21:36;;;;;;;;;;;12.10;99.90;;;;;;4968678;29;19922;-83
2021/12/14 10:24:08;;;;;;;;;;;11.90;99.90;;;;;;4952693;29;19928;-89
2021/12/14 10:26:42;;;;;;;;;;;12.10;99.90;;;;;;4968701;29;19922;-85
2021/12/14 10:29:12;;;;;;;;;;;13.70;99.90;;;;;;4956069;29;19961;-83
2021/12/14 10:31:58;;;;;;;;;;;11.50;99.90;;;;;;4957616;28;19934;-86
2021/12/14 10:34:27;;;;;;;;;;;13.60;99.90;;;;;;4951520;29;19930;-83
2021/12/14 10:37:12;;;;;;;;;;;12.30;99.90;;;;;;4966285;29;20419;-83
2021/12/14 10:45:48;;;;;;;;;;;;;;;;;;;;;
2021/12/14 10:48:24;;;;;;;;;;;12.40;99.90;;;;;;4951148;29;19926;-85
2021/12/14 10:50:54;;;;;;;;;;;12.50;99.90;;;;;;4952844;29;19936;-88
2021/12/14 10:53:22;;;;;;;;;;;12.50;99.90;;;;;;4952309;28;19929;-91
2021/12/14 10:55:57;;;;;;;;;;;12.50;99.90;;;;;;4948283;29;19937;-84
2021/12/14 10:58:27;;;;;;;;;;;12.60;99.90;;;;;;4950524;29;19998;-86
2021/12/14 11:01:02;;;;;;;;;;;12.60;99.90;;;;;;4967773;29;19940;-84
2021/12/14 11:03:35;;;;;;;;;;;12.80;99.90;;;;;;4965567;29;19922;-86
2021/12/14 11:06:28;;;;;;;;;;;12.70;99.90;;;;;;4968972;29;19922;-89
2021/12/14 11:09:39;;;;;;;;;;;12.80;99.90;;;;;;4951794;29;20195;-83
2021/12/14 11:11:49;;;;;;;;;;;11.80;99.90;;;;;;4963188;29;19933;-84
2021/12/14 11:14:21;;;;;;;;;;;12.70;99.90;;;;;;4934306;29;19938;-87
2021/12/14 11:19:59;;;;;;;;;;;12.20;99.90;;;;;;4950248;29;19929;-83
2021/12/14 11:22:43;;;;;;;;;;;11.20;99.90;;;;;;4950429;29;19926;-83
2021/12/14 11:25:44;;;;;;;;;;;13.00;99.90;;;;;;4934161;28;19933;-83
2021/12/14 11:28:34;;;;;;;;;;;13.00;99.90;;;;;;4990427;28;19932;-84
2021/12/14 11:31:19;;;;;;;;;;;13.10;99.90;;;;;;4980723;28;19930;-83
2021/12/14 11:33:54;;;;;;;;;;;13.20;99.90;;;;;;4972596;28;19926;-84
2021/12/14 11:36:37;;;;;;;;;;;13.30;99.90;;;;;;4970872;28;19922;-84
2021/12/14 11:39:24;;;;;;;;;;;13.50;99.90;;;;;;5001600;28;19925;-83
2021/12/14 11:42:11;;;;;;;;;;;13.40;99.90;;;;;;4974339;28;19968;-86
2021/12/14 11:44:47;;;;;;;;;;;13.50;99.90;;;;;;4996260;28;20223;-85
2021/12/14 11:47:42;;;;;;;;;;;13.30;99.90;;;;;;4993307;28;19932;-85
2021/12/14 11:50:30;;;;;;;;;;;13.50;99.90;;;;;;5008931;28;19930;-85
2021/12/14 11:53:21;;;;;;;;;;;13.30;99.90;;;;;;4989451;28;19925;-85
2021/12/14 11:55:56;;;;;;;;;;;13.30;99.90;;;;;;5006522;28;19926;-84
2021/12/14 11:58:54;;;;;;;;;;;;;;;;;;;;;
2021/12/14 12:01:53;;;;;;;;;;;13.40;99.90;;;;;;4893915;29;19934;-87
2021/12/14 12:05:14;;;;;;;;;;;12.50;99.90;;;;;;4854645;29;19924;-85
2021/12/14 12:11:21;;;;;;;;;;;13.70;99.90;;;;;;4873595;29;19931;-91
2021/12/14 12:13:53;;;;;;;;;;;15.20;99.90;;;;;;4875409;29;19924;-84
2021/12/14 12:16:40;;;;;;;;;;;14.50;99.90;;;;;;4873448;29;19924;-87
2021/12/14 12:19:23;;;;;;;;;;;13.60;99.90;;;;;;4923413;28;19922;-85
2021/12/14 12:22:04;;;;;;;;;;;12.40;99.90;;;;;;4998654;28;19922;-88
2021/12/14 12:24:52;;;;;;;;;;;14.10;99.90;;;;;;4980002;28;19937;-83
2021/12/14 12:27:40;;;;;;;;;;;13.70;99.90;;;;;;4953783;28;19926;-83
2021/12/14 12:30:29;;;;;;;;;;;13.80;99.90;;;;;;4963411;28;19926;-83
2021/12/14 12:33:11;;;;;;;;;;;13.70;99.90;;;;;;4981147;28;19921;-84
2021/12/14 12:36:13;;;;;;;;;;;13.70;99.90;;;;;;4978839;28;19936;-87
2021/12/14 12:39:20;;;;;;;;;;;14.30;99.90;;;;;;4965857;28;19921;-83
2021/12/14 12:41:51;;;;;;;;;;;14.00;99.90;;;;;;4989936;28;19934;-83
2021/12/14 12:45:05;;;;;;;;;;;13.80;99.90;;;;;;4970479;28;19922;-87
2021/12/14 12:47:34;;;;;;;;;;;12.50;99.90;;;;;;4949906;28;19933;-86
2021/12/14 12:50:05;;;;;;;;;;;14.00;99.90;;;;;;4991024;28;19929;-83
2021/12/14 12:52:37;;;;;;;;;;;13.90;99.90;;;;;;4964821;28;19922;-84
2021/12/14 12:55:11;;;;;;;;;;;13.30;99.90;;;;;;4980436;28;20282;-84
2021/12/14 12:57:53;;;;;;;;;;;13.70;99.90;;;;;;4981156;28;19922;-85
2021/12/14 13:00:27;;;;;;;;;;;16.60;99.90;;;;;;4947654;28;20233;-84
2021/12/14 13:03:40;;;;;;;;;;;13.70;99.90;;;;;;4977576;28;19929;-84
2021/12/14 13:06:14;;;;;;;;;;;12.10;99.90;;;;;;4973061;28;19922;-82
2021/12/14 13:08:55;;;;;;;;;;;14.30;99.90;;;;;;4991028;28;19933;-84
2021/12/14 13:11:38;;;;;;;;;;;13.70;99.90;;;;;;4963512;28;19925;-82
2021/12/14 13:18:25;;;;;;;;;;;13.40;99.90;;;;;;4974236;28;19993;-87
2021/12/14 13:21:30;;;;;;;;;;;14.40;99.90;;;;;;4976975;28;19967;-84
2021/12/14 13:24:10;;;;;;;;;;;13.40;99.90;;;;;;4959045;28;19922;-85
2021/12/14 13:26:53;;;;;;;;;;;13.90;99.90;;;;;;4982780;28;20187;-85
2021/12/14 14:11:57;;;;;;;;;;;14.70;99.90;;;;;;4670552;30;19937;-86
2021/12/14 14:14:38;;;;;;;;;;;14.40;99.90;;;;;;5058971;28;19918;-92
2021/12/14 14:17:08;;;;;;;;;;;13.60;99.90;;;;;;5011657;28;19952;-91
2021/12/14 14:19:36;;;;;;;;;;;13.60;99.90;;;;;;5027402;28;20009;-89
2021/12/14 14:22:14;;;;;;;;;;;13.50;99.90;;;;;;5029367;28;19929;-90
2021/12/14 14:24:43;;;;;;;;;;;13.50;99.90;;;;;;5026411;28;19925;-90
2021/12/14 14:27:30;;;;;;;;;;;13.60;99.90;;;;;;5029262;28;19953;-88
2021/12/14 14:29:57;;;;;;;;;;;13.40;99.90;;;;;;5042563;28;19926;-87
2021/12/14 14:32:35;;;;;;;;;;;13.60;99.90;;;;;;5015364;28;19941;-92
2021/12/14 14:35:20;;;;;;;;;;;13.40;99.90;;;;;;5041782;23;19930;-84
2021/12/14 14:37:49;;;;;;;;;;;13.40;99.90;;;;;;5001678;28;19925;-84
2021/12/14 14:40:27;;;;;;;;;;;;;;;;;;;;;
2021/12/14 14:43:00;;;;;;;;;;;13.30;99.90;;;;;;5020538;28;19925;-85
2021/12/14 14:45:28;;;;;;;;;;;13.30;99.90;;;;;;5019199;28;19929;-86
2021/12/14 14:47:56;;;;;;;;;;;13.30;99.90;;;;;;5022291;28;20462;-84
2021/12/14 14:50:33;;;;;;;;;;;13.00;99.90;;;;;;5017345;28;20392;-85
2021/12/14 14:53:12;;;;;;;;;;;13.20;99.90;;;;;;5020366;28;19968;-86
2021/12/14 14:55:55;;;;;;;;;;;13.20;99.90;;;;;;5019974;28;19937;-84
2021/12/14 14:58:30;;;;;;;;;;;13.20;99.90;;;;;;5004988;28;19926;-85
2021/12/14 15:01:22;;;;;;;;;;;13.40;99.90;;;;;;5013786;28;19925;-83
2021/12/14 15:04:06;;;;;;;;;;;;;;;;;;;;;
2021/12/14 15:07:08;;;;;;;;;;;13.10;99.90;;;;;;5009234;28;19926;-86
2021/12/14 15:09:42;;;;;;;;;;;13.10;99.90;;;;;;5024038;28;19926;-81
2021/12/14 15:12:18;;;;;;;;;;;13.10;99.90;;;;;;5022661;28;20135;-84
2021/12/14 15:14:47;;;;;;;;;;;13.20;99.90;;;;;;5014329;28;20306;-86
2021/12/14 15:17:24;;;;;;;;;;;13.10;99.90;;;;;;5018473;28;19952;-82
2021/12/14 15:19:56;;;;;;;;;;;13.10;99.90;;;;;;5026435;28;19910;-80
2021/12/14 15:22:34;;;;;;;;;;;13.10;99.90;;;;;;5014963;28;19936;-82
2021/12/14 15:25:07;;;;;;;;;;;13.10;99.90;;;;;;5048243;28;19940;-82
2021/12/14 15:27:59;;;;;;;;;;;13.00;99.90;;;;;;5012895;28;19929;-82
2021/12/14 15:30:30;;;;;;;;;;;13.00;99.90;;;;;;5009951;28;19925;-81
2021/12/14 15:32:59;;;;;;;;;;;13.00;99.90;;;;;;5002320;28;19933;-81
2021/12/14 15:35:30;;;;;;;;;;;13.00;99.90;;;;;;5005175;28;19926;-83
2021/12/14 15:38:03;;;;;;;;;;;13.10;99.90;;;;;;5005737;28;19926;-82
2021/12/14 15:40:40;;;;;;;;;;;13.00;99.90;;;;;;5008545;28;19929;-82
2021/12/14 15:43:12;;;;;;;;;;;13.00;99.90;;;;;;5037920;28;19926;-82
2021/12/14 15:45:46;;;;;;;;;;;13.20;99.90;;;;;;5021365;28;19930;-89
2021/12/14 15:48:29;;;;;;;;;;;13.00;99.90;;;;;;5006802;28;19929;-85
2021/12/14 15:50:58;;;;;;;;;;;13.00;99.90;;;;;;5006314;28;20258;-81
2021/12/14 15:53:38;;;;;;;;;;;12.90;99.90;;;;;;5004592;28;19925;-83
2021/12/14 15:56:09;;;;;;;;;;;12.90;99.90;;;;;;5036666;28;20608;-81
2021/12/14 15:58:43;;;;;;;;;;;12.90;99.90;;;;;;5004469;28;19925;-84
2021/12/14 16:01:29;;;;;;;;;;;12.90;99.90;;;;;;5027892;28;19934;-83
2021/12/14 16:04:03;;;;;;;;;;;12.90;99.90;;;;;;5042372;28;19931;-82
2021/12/14 16:06:37;;;;;;;;;;;13.00;99.90;;;;;;5011442;28;19918;-84
2021/12/14 16:09:08;;;;;;;;;;;13.00;99.90;;;;;;5007886;28;19930;-83
2021/12/14 16:11:46;;;;;;;;;;;12.90;99.90;;;;;;5021759;28;19932;-83
2021/12/14 16:17:09;;;;;;;;;;;12.50;99.90;;;;;;5040664;28;19928;-82
2021/12/14 16:19:44;;;;;;;;;;;13.10;99.90;;;;;;5027532;28;19949;-82
2021/12/14 16:22:19;;;;;;;;;;;12.80;99.90;;;;;;5007385;28;20401;-80
2021/12/14 16:25:09;;;;;;;;;;;12.80;99.90;;;;;;5007101;28;19936;-83
2021/12/14 16:27:40;;;;;;;;;;;12.80;99.90;;;;;;5000928;28;19933;-85
2021/12/14 16:30:19;;;;;;;;;;;14.10;99.90;;;;;;5023433;28;19933;-82
2021/12/14 16:33:01;;;;;;;;;;;12.80;99.90;;;;;;5005342;28;19933;-83
2021/12/14 16:35:29;;;;;;;;;;;12.80;99.90;;;;;;5040697;28;19929;-85
2021/12/14 16:38:03;;;;;;;;;;;12.90;99.90;;;;;;5022175;28;19932;-82
2021/12/14 16:40:35;;;;;;;;;;;12.80;99.90;;;;;;5005472;28;19934;-83
2021/12/14 16:43:04;;;;;;;;;;;12.80;99.90;;;;;;5022597;28;19929;-82
2021/12/14 16:45:39;;;;;;;;;;;12.80;99.90;;;;;;5021097;28;19934;-90
2021/12/14 16:48:11;;;;;;;;;;;12.10;99.90;;;;;;5021270;28;19934;-83
2021/12/14 16:50:41;;;;;;;;;;;12.70;99.90;;;;;;5004625;28;19932;-81
2021/12/14 16:53:09;;;;;;;;;;;12.70;99.90;;;;;;5022483;28;19941;-81
2021/12/14 16:55:39;;;;;;;;;;;12.30;99.90;;;;;;4991200;28;19937;-83
2021/12/14 16:58:10;;;;;;;;;;;11.00;99.90;;;;;;5019842;28;20236;-82
2021/12/14 17:00:49;;;;;;;;;;;11.30;99.90;;;;;;5002793;28;19941;-81
2021/12/14 17:03:19;;;;;;;;;;;12.70;99.90;;;;;;5018783;28;19932;-81
2021/12/14 17:05:53;;;;;;;;;;;12.90;99.90;;;;;;5036639;28;19934;-82
2021/12/14 17:08:23;;;;;;;;;;;12.80;99.90;;;;;;5037234;28;19926;-82
2021/12/14 17:10:54;;;;;;;;;;;12.70;99.90;;;;;;5036797;28;19930;-82